sensor_id;sensor_type;location;lat;lon;timestamp;P1;durP1;ratioP1;P2;durP2;ratioP2
44955;SDS011;30686;52.512;-1.188;2023-04-06T00:02:11;6.75;;;3.85;;
44955;SDS011;30686;52.512;-1.188;2023-04-06T00:04:37;8.13;;;4.25;;
44955;SDS011;30686;52.512;-1.188;2023-04-06T00:07:04;7.65;;;3.88;;
44955;SDS011;30686;52.512;-1.188;2023-04-06T00:09:30;7.60;;;4.22;;
44955;SDS011;30686;52.512;-1.188;2023-04-06T00:12:04;7.88;;;4.20;;
44955;SDS011;30686;52.512;-1.188;2023-04-06T00:14:30;6.05;;;4.00;;
44955;SDS011;30686;52.512;-1.188;2023-04-06T00:16:59;6.75;;;4.00;;
44955;SDS011;30686;52.512;-1.188;2023-04-06T00:19:26;6.45;;;3.78;;
44955;SDS011;30686;52.512;-1.188;2023-04-06T00:21:52;9.40;;;4.47;;
44955;SDS011;30686;52.512;-1.188;2023-04-06T00:24:19;7.63;;;3.50;;
44955;SDS011;30686;52.512;-1.188;2023-04-06T00:26:45;7.10;;;3.75;;
44955;SDS011;30686;52.512;-1.188;2023-04-06T00:29:11;6.70;;;3.53;;
44955;SDS011;30686;52.512;-1.188;2023-04-06T00:31:37;6.97;;;3.58;;
44955;SDS011;30686;52.512;-1.188;2023-04-06T00:34:06;7.40;;;4.07;;
44955;SDS011;30686;52.512;-1.188;2023-04-06T00:36:33;6.78;;;3.83;;
44955;SDS011;30686;52.512;-1.188;2023-04-06T00:38:59;8.32;;;4.05;;
44955;SDS011;30686;52.512;-1.188;2023-04-06T00:41:25;6.88;;;3.85;;
44955;SDS011;30686;52.512;-1.188;2023-04-06T00:43:53;7.50;;;4.28;;
44955;SDS011;30686;52.512;-1.188;2023-04-06T00:46:19;7.97;;;4.22;;
44955;SDS011;30686;52.512;-1.188;2023-04-06T00:48:45;7.90;;;4.50;;
44955;SDS011;30686;52.512;-1.188;2023-04-06T00:51:12;8.52;;;3.92;;
44955;SDS011;30686;52.512;-1.188;2023-04-06T00:53:43;7.78;;;4.10;;
44955;SDS011;30686;52.512;-1.188;2023-04-06T00:56:10;7.50;;;3.90;;
44955;SDS011;30686;52.512;-1.188;2023-04-06T00:58:37;7.25;;;3.92;;
44955;SDS011;30686;52.512;-1.188;2023-04-06T01:01:04;6.35;;;3.80;;
44955;SDS011;30686;52.512;-1.188;2023-04-06T01:03:30;6.90;;;3.92;;
44955;SDS011;30686;52.512;-1.188;2023-04-06T01:05:57;7.45;;;4.07;;
44955;SDS011;30686;52.512;-1.188;2023-04-06T01:08:23;8.75;;;4.82;;
44955;SDS011;30686;52.512;-1.188;2023-04-06T01:10:51;8.82;;;4.82;;
44955;SDS011;30686;52.512;-1.188;2023-04-06T01:13:18;7.00;;;4.10;;
44955;SDS011;30686;52.512;-1.188;2023-04-06T01:15:45;7.38;;;4.40;;
44955;SDS011;30686;52.512;-1.188;2023-04-06T01:18:12;7.10;;;4.20;;
44955;SDS011;30686;52.512;-1.188;2023-04-06T01:20:38;7.53;;;4.40;;
44955;SDS011;30686;52.512;-1.188;2023-04-06T01:23:05;8.00;;;4.07;;
44955;SDS011;30686;52.512;-1.188;2023-04-06T01:25:31;7.97;;;4.25;;
44955;SDS011;30686;52.512;-1.188;2023-04-06T01:27:57;7.90;;;3.80;;
44955;SDS011;30686;52.512;-1.188;2023-04-06T01:30:26;8.57;;;4.75;;
44955;SDS011;30686;52.512;-1.188;2023-04-06T01:32:52;7.25;;;4.00;;
44955;SDS011;30686;52.512;-1.188;2023-04-06T01:35:19;7.05;;;4.05;;
44955;SDS011;30686;52.512;-1.188;2023-04-06T01:37:47;10.07;;;4.90;;
44955;SDS011;30686;52.512;-1.188;2023-04-06T01:40:17;7.43;;;4.15;;
44955;SDS011;30686;52.512;-1.188;2023-04-06T01:42:43;10.27;;;4.70;;
44955;SDS011;30686;52.512;-1.188;2023-04-06T01:45:09;10.18;;;4.45;;
44955;SDS011;30686;52.512;-1.188;2023-04-06T01:47:36;9.10;;;5.00;;
44955;SDS011;30686;52.512;-1.188;2023-04-06T01:50:02;8.10;;;4.82;;
44955;SDS011;30686;52.512;-1.188;2023-04-06T01:52:32;9.52;;;4.88;;
44955;SDS011;30686;52.512;-1.188;2023-04-06T01:54:59;8.90;;;4.90;;
44955;SDS011;30686;52.512;-1.188;2023-04-06T01:57:25;9.30;;;4.97;;
44955;SDS011;30686;52.512;-1.188;2023-04-06T01:59:51;8.38;;;4.50;;
44955;SDS011;30686;52.512;-1.188;2023-04-06T02:02:17;8.98;;;5.10;;
44955;SDS011;30686;52.512;-1.188;2023-04-06T02:04:44;10.07;;;4.97;;
44955;SDS011;30686;52.512;-1.188;2023-04-06T02:07:10;11.02;;;5.63;;
44955;SDS011;30686;52.512;-1.188;2023-04-06T02:09:36;9.82;;;4.72;;
44955;SDS011;30686;52.512;-1.188;2023-04-06T02:12:02;10.80;;;5.53;;
44955;SDS011;30686;52.512;-1.188;2023-04-06T02:14:28;8.25;;;4.47;;
44955;SDS011;30686;52.512;-1.188;2023-04-06T02:16:57;6.57;;;3.60;;
44955;SDS011;30686;52.512;-1.188;2023-04-06T02:19:24;8.60;;;4.53;;
44955;SDS011;30686;52.512;-1.188;2023-04-06T02:21:50;7.32;;;4.03;;
44955;SDS011;30686;52.512;-1.188;2023-04-06T02:24:16;8.75;;;4.18;;
44955;SDS011;30686;52.512;-1.188;2023-04-06T02:26:42;6.25;;;3.28;;
44955;SDS011;30686;52.512;-1.188;2023-04-06T02:29:08;5.50;;;3.13;;
44955;SDS011;30686;52.512;-1.188;2023-04-06T02:31:36;4.72;;;2.80;;
44955;SDS011;30686;52.512;-1.188;2023-04-06T02:34:02;6.38;;;2.95;;
44955;SDS011;30686;52.512;-1.188;2023-04-06T02:36:28;6.65;;;3.40;;
44955;SDS011;30686;52.512;-1.188;2023-04-06T02:38:55;6.28;;;3.20;;
44955;SDS011;30686;52.512;-1.188;2023-04-06T02:41:21;9.63;;;4.20;;
44955;SDS011;30686;52.512;-1.188;2023-04-06T02:43:47;6.75;;;3.78;;
44955;SDS011;30686;52.512;-1.188;2023-04-06T02:46:14;7.55;;;4.25;;
44955;SDS011;30686;52.512;-1.188;2023-04-06T02:48:40;9.20;;;4.32;;
44955;SDS011;30686;52.512;-1.188;2023-04-06T02:51:06;7.35;;;3.97;;
44955;SDS011;30686;52.512;-1.188;2023-04-06T02:53:33;8.38;;;4.72;;
44955;SDS011;30686;52.512;-1.188;2023-04-06T02:55:59;11.30;;;4.78;;
44955;SDS011;30686;52.512;-1.188;2023-04-06T02:58:25;13.45;;;4.75;;
44955;SDS011;30686;52.512;-1.188;2023-04-06T03:03:47;11.25;;;4.85;;
44955;SDS011;30686;52.512;-1.188;2023-04-06T03:06:13;10.73;;;4.53;;
44955;SDS011;30686;52.512;-1.188;2023-04-06T03:08:40;9.23;;;5.25;;
44955;SDS011;30686;52.512;-1.188;2023-04-06T03:11:06;10.48;;;5.10;;
44955;SDS011;30686;52.512;-1.188;2023-04-06T03:13:32;8.85;;;5.07;;
44955;SDS011;30686;52.512;-1.188;2023-04-06T03:15:59;9.30;;;5.05;;
44955;SDS011;30686;52.512;-1.188;2023-04-06T03:18:25;9.07;;;4.85;;
44955;SDS011;30686;52.512;-1.188;2023-04-06T03:20:51;11.73;;;5.82;;
44955;SDS011;30686;52.512;-1.188;2023-04-06T03:23:20;12.48;;;5.30;;
44955;SDS011;30686;52.512;-1.188;2023-04-06T03:25:49;8.75;;;4.93;;
44955;SDS011;30686;52.512;-1.188;2023-04-06T03:28:15;12.80;;;5.63;;
44955;SDS011;30686;52.512;-1.188;2023-04-06T03:30:42;8.82;;;4.78;;
44955;SDS011;30686;52.512;-1.188;2023-04-06T03:33:08;10.55;;;5.57;;
44955;SDS011;30686;52.512;-1.188;2023-04-06T03:35:34;12.40;;;5.93;;
44955;SDS011;30686;52.512;-1.188;2023-04-06T03:38:02;10.45;;;5.03;;
44955;SDS011;30686;52.512;-1.188;2023-04-06T03:40:28;10.98;;;5.53;;
44955;SDS011;30686;52.512;-1.188;2023-04-06T03:42:55;10.85;;;6.15;;
44955;SDS011;30686;52.512;-1.188;2023-04-06T03:45:21;9.63;;;5.30;;
44955;SDS011;30686;52.512;-1.188;2023-04-06T03:47:47;8.75;;;5.18;;
44955;SDS011;30686;52.512;-1.188;2023-04-06T03:50:13;9.10;;;5.20;;
44955;SDS011;30686;52.512;-1.188;2023-04-06T03:52:40;10.18;;;5.45;;
44955;SDS011;30686;52.512;-1.188;2023-04-06T03:55:06;10.00;;;4.90;;
44955;SDS011;30686;52.512;-1.188;2023-04-06T03:57:32;8.63;;;5.03;;
44955;SDS011;30686;52.512;-1.188;2023-04-06T03:59:59;8.80;;;4.93;;
44955;SDS011;30686;52.512;-1.188;2023-04-06T04:02:25;8.77;;;5.25;;
44955;SDS011;30686;52.512;-1.188;2023-04-06T04:04:51;11.80;;;5.07;;
44955;SDS011;30686;52.512;-1.188;2023-04-06T04:07:17;10.98;;;5.10;;
44955;SDS011;30686;52.512;-1.188;2023-04-06T04:09:44;10.98;;;6.07;;
44955;SDS011;30686;52.512;-1.188;2023-04-06T04:12:10;8.73;;;5.25;;
44955;SDS011;30686;52.512;-1.188;2023-04-06T04:14:36;9.90;;;5.35;;
44955;SDS011;30686;52.512;-1.188;2023-04-06T04:17:03;12.90;;;5.72;;
44955;SDS011;30686;52.512;-1.188;2023-04-06T04:19:29;9.93;;;5.30;;
44955;SDS011;30686;52.512;-1.188;2023-04-06T04:21:56;11.13;;;5.93;;
44955;SDS011;30686;52.512;-1.188;2023-04-06T04:24:22;11.45;;;5.47;;
44955;SDS011;30686;52.512;-1.188;2023-04-06T04:26:48;12.82;;;6.10;;
44955;SDS011;30686;52.512;-1.188;2023-04-06T04:29:15;10.02;;;5.50;;
44955;SDS011;30686;52.512;-1.188;2023-04-06T04:31:41;10.05;;;5.45;;
44955;SDS011;30686;52.512;-1.188;2023-04-06T04:34:07;11.32;;;5.43;;
44955;SDS011;30686;52.512;-1.188;2023-04-06T04:36:34;14.27;;;5.97;;
44955;SDS011;30686;52.512;-1.188;2023-04-06T04:39:00;9.80;;;4.43;;
44955;SDS011;30686;52.512;-1.188;2023-04-06T04:41:26;10.20;;;5.97;;
44955;SDS011;30686;52.512;-1.188;2023-04-06T04:43:53;13.20;;;7.13;;
44955;SDS011;30686;52.512;-1.188;2023-04-06T04:46:19;10.52;;;5.88;;
44955;SDS011;30686;52.512;-1.188;2023-04-06T04:48:45;10.18;;;5.90;;
44955;SDS011;30686;52.512;-1.188;2023-04-06T04:51:11;10.98;;;5.55;;
44955;SDS011;30686;52.512;-1.188;2023-04-06T04:53:37;11.95;;;6.88;;
44955;SDS011;30686;52.512;-1.188;2023-04-06T04:56:03;11.57;;;6.65;;
44955;SDS011;30686;52.512;-1.188;2023-04-06T04:58:30;11.63;;;5.90;;
44955;SDS011;30686;52.512;-1.188;2023-04-06T05:00:56;10.00;;;5.30;;
44955;SDS011;30686;52.512;-1.188;2023-04-06T05:03:23;10.93;;;5.43;;
44955;SDS011;30686;52.512;-1.188;2023-04-06T05:05:50;9.40;;;5.68;;
44955;SDS011;30686;52.512;-1.188;2023-04-06T05:08:16;10.20;;;6.03;;
44955;SDS011;30686;52.512;-1.188;2023-04-06T05:10:42;12.38;;;6.22;;
44955;SDS011;30686;52.512;-1.188;2023-04-06T05:13:10;10.45;;;6.00;;
44955;SDS011;30686;52.512;-1.188;2023-04-06T05:15:36;11.38;;;5.65;;
44955;SDS011;30686;52.512;-1.188;2023-04-06T05:18:03;9.15;;;5.45;;
44955;SDS011;30686;52.512;-1.188;2023-04-06T05:20:31;10.10;;;4.68;;
44955;SDS011;30686;52.512;-1.188;2023-04-06T05:22:57;12.05;;;5.60;;
44955;SDS011;30686;52.512;-1.188;2023-04-06T05:25:23;9.40;;;5.05;;
44955;SDS011;30686;52.512;-1.188;2023-04-06T05:27:49;10.80;;;5.90;;
44955;SDS011;30686;52.512;-1.188;2023-04-06T05:30:16;13.02;;;6.28;;
44955;SDS011;30686;52.512;-1.188;2023-04-06T05:32:42;11.52;;;6.00;;
44955;SDS011;30686;52.512;-1.188;2023-04-06T05:35:09;11.27;;;5.90;;
44955;SDS011;30686;52.512;-1.188;2023-04-06T05:37:36;12.23;;;6.30;;
44955;SDS011;30686;52.512;-1.188;2023-04-06T05:40:03;11.43;;;5.78;;
44955;SDS011;30686;52.512;-1.188;2023-04-06T05:42:39;13.82;;;6.00;;
44955;SDS011;30686;52.512;-1.188;2023-04-06T05:45:06;13.40;;;5.90;;
44955;SDS011;30686;52.512;-1.188;2023-04-06T05:47:32;11.05;;;5.60;;
44955;SDS011;30686;52.512;-1.188;2023-04-06T05:49:59;10.90;;;5.60;;
44955;SDS011;30686;52.512;-1.188;2023-04-06T05:52:25;10.57;;;5.63;;
44955;SDS011;30686;52.512;-1.188;2023-04-06T05:54:51;10.75;;;5.78;;
44955;SDS011;30686;52.512;-1.188;2023-04-06T05:57:18;12.43;;;5.38;;
44955;SDS011;30686;52.512;-1.188;2023-04-06T05:59:44;13.15;;;6.03;;
44955;SDS011;30686;52.512;-1.188;2023-04-06T06:02:10;9.27;;;5.32;;
44955;SDS011;30686;52.512;-1.188;2023-04-06T06:04:36;13.38;;;4.85;;
44955;SDS011;30686;52.512;-1.188;2023-04-06T06:07:02;11.88;;;5.43;;
44955;SDS011;30686;52.512;-1.188;2023-04-06T06:09:29;10.38;;;5.40;;
44955;SDS011;30686;52.512;-1.188;2023-04-06T06:11:55;10.77;;;5.75;;
44955;SDS011;30686;52.512;-1.188;2023-04-06T06:14:21;9.57;;;5.20;;
44955;SDS011;30686;52.512;-1.188;2023-04-06T06:16:47;10.35;;;5.30;;
44955;SDS011;30686;52.512;-1.188;2023-04-06T06:19:14;9.50;;;5.90;;
44955;SDS011;30686;52.512;-1.188;2023-04-06T06:21:40;10.68;;;4.20;;
44955;SDS011;30686;52.512;-1.188;2023-04-06T06:24:06;10.30;;;5.18;;
44955;SDS011;30686;52.512;-1.188;2023-04-06T06:26:33;9.25;;;5.45;;
44955;SDS011;30686;52.512;-1.188;2023-04-06T06:29:02;12.80;;;5.50;;
44955;SDS011;30686;52.512;-1.188;2023-04-06T06:31:30;12.35;;;5.53;;
44955;SDS011;30686;52.512;-1.188;2023-04-06T06:33:56;8.98;;;4.43;;
44955;SDS011;30686;52.512;-1.188;2023-04-06T06:36:23;9.73;;;4.85;;
44955;SDS011;30686;52.512;-1.188;2023-04-06T06:38:50;10.68;;;4.57;;
44955;SDS011;30686;52.512;-1.188;2023-04-06T06:41:17;14.88;;;5.03;;
44955;SDS011;30686;52.512;-1.188;2023-04-06T06:43:43;12.20;;;6.00;;
44955;SDS011;30686;52.512;-1.188;2023-04-06T06:46:10;11.60;;;5.05;;
44955;SDS011;30686;52.512;-1.188;2023-04-06T06:48:36;10.30;;;4.40;;
44955;SDS011;30686;52.512;-1.188;2023-04-06T06:51:02;9.15;;;4.78;;
44955;SDS011;30686;52.512;-1.188;2023-04-06T06:53:28;11.23;;;4.82;;
44955;SDS011;30686;52.512;-1.188;2023-04-06T06:55:55;10.00;;;5.45;;
44955;SDS011;30686;52.512;-1.188;2023-04-06T06:58:21;9.63;;;5.28;;
44955;SDS011;30686;52.512;-1.188;2023-04-06T07:00:47;8.52;;;3.75;;
44955;SDS011;30686;52.512;-1.188;2023-04-06T07:03:14;9.63;;;4.68;;
44955;SDS011;30686;52.512;-1.188;2023-04-06T07:05:46;8.90;;;4.78;;
44955;SDS011;30686;52.512;-1.188;2023-04-06T07:08:19;8.38;;;4.72;;
44955;SDS011;30686;52.512;-1.188;2023-04-06T07:10:46;8.07;;;4.50;;
44955;SDS011;30686;52.512;-1.188;2023-04-06T07:13:12;12.63;;;4.88;;
44955;SDS011;30686;52.512;-1.188;2023-04-06T07:15:44;9.02;;;4.10;;
44955;SDS011;30686;52.512;-1.188;2023-04-06T07:18:12;10.88;;;4.85;;
44955;SDS011;30686;52.512;-1.188;2023-04-06T07:20:39;8.27;;;4.35;;
44955;SDS011;30686;52.512;-1.188;2023-04-06T07:23:05;10.15;;;5.10;;
44955;SDS011;30686;52.512;-1.188;2023-04-06T07:25:31;9.77;;;4.43;;
44955;SDS011;30686;52.512;-1.188;2023-04-06T07:27:57;12.73;;;5.45;;
44955;SDS011;30686;52.512;-1.188;2023-04-06T07:30:24;10.70;;;5.28;;
44955;SDS011;30686;52.512;-1.188;2023-04-06T07:32:54;8.73;;;4.68;;
44955;SDS011;30686;52.512;-1.188;2023-04-06T07:35:21;8.80;;;4.50;;
44955;SDS011;30686;52.512;-1.188;2023-04-06T07:37:48;9.32;;;4.47;;
44955;SDS011;30686;52.512;-1.188;2023-04-06T07:40:14;8.40;;;4.22;;
44955;SDS011;30686;52.512;-1.188;2023-04-06T07:42:40;9.75;;;4.68;;
44955;SDS011;30686;52.512;-1.188;2023-04-06T07:45:06;7.47;;;3.88;;
44955;SDS011;30686;52.512;-1.188;2023-04-06T07:47:33;7.13;;;3.63;;
44955;SDS011;30686;52.512;-1.188;2023-04-06T07:49:59;9.10;;;4.05;;
44955;SDS011;30686;52.512;-1.188;2023-04-06T07:52:28;8.23;;;4.22;;
44955;SDS011;30686;52.512;-1.188;2023-04-06T07:54:55;7.53;;;4.38;;
44955;SDS011;30686;52.512;-1.188;2023-04-06T07:57:21;6.80;;;3.70;;
44955;SDS011;30686;52.512;-1.188;2023-04-06T07:59:47;8.48;;;4.13;;
44955;SDS011;30686;52.512;-1.188;2023-04-06T08:02:13;8.32;;;4.32;;
44955;SDS011;30686;52.512;-1.188;2023-04-06T08:04:40;10.63;;;4.85;;
44955;SDS011;30686;52.512;-1.188;2023-04-06T08:07:06;7.72;;;4.50;;
44955;SDS011;30686;52.512;-1.188;2023-04-06T08:09:32;10.70;;;5.85;;
44955;SDS011;30686;52.512;-1.188;2023-04-06T08:11:59;11.85;;;5.80;;
44955;SDS011;30686;52.512;-1.188;2023-04-06T08:14:25;11.43;;;5.03;;
44955;SDS011;30686;52.512;-1.188;2023-04-06T08:16:52;10.48;;;5.20;;
44955;SDS011;30686;52.512;-1.188;2023-04-06T08:19:18;11.50;;;5.43;;
44955;SDS011;30686;52.512;-1.188;2023-04-06T08:21:44;9.88;;;5.25;;
44955;SDS011;30686;52.512;-1.188;2023-04-06T08:24:11;11.82;;;5.78;;
44955;SDS011;30686;52.512;-1.188;2023-04-06T08:26:37;12.80;;;5.80;;
44955;SDS011;30686;52.512;-1.188;2023-04-06T08:29:04;11.25;;;5.70;;
44955;SDS011;30686;52.512;-1.188;2023-04-06T08:31:35;13.20;;;5.50;;
44955;SDS011;30686;52.512;-1.188;2023-04-06T08:34:03;12.23;;;6.75;;
44955;SDS011;30686;52.512;-1.188;2023-04-06T08:36:29;10.45;;;5.28;;
44955;SDS011;30686;52.512;-1.188;2023-04-06T08:38:56;9.70;;;5.20;;
44955;SDS011;30686;52.512;-1.188;2023-04-06T08:41:22;15.18;;;6.03;;
44955;SDS011;30686;52.512;-1.188;2023-04-06T08:43:49;14.63;;;6.45;;
44955;SDS011;30686;52.512;-1.188;2023-04-06T08:46:16;13.88;;;6.00;;
44955;SDS011;30686;52.512;-1.188;2023-04-06T08:48:42;15.57;;;6.80;;
44955;SDS011;30686;52.512;-1.188;2023-04-06T08:51:09;12.93;;;6.25;;
44955;SDS011;30686;52.512;-1.188;2023-04-06T08:53:36;12.95;;;6.80;;
44955;SDS011;30686;52.512;-1.188;2023-04-06T08:56:03;13.73;;;6.05;;
44955;SDS011;30686;52.512;-1.188;2023-04-06T08:58:32;10.30;;;5.85;;
44955;SDS011;30686;52.512;-1.188;2023-04-06T09:00:59;9.85;;;4.97;;
44955;SDS011;30686;52.512;-1.188;2023-04-06T09:03:26;14.23;;;6.10;;
44955;SDS011;30686;52.512;-1.188;2023-04-06T09:05:54;10.38;;;5.53;;
44955;SDS011;30686;52.512;-1.188;2023-04-06T09:08:20;10.15;;;5.60;;
44955;SDS011;30686;52.512;-1.188;2023-04-06T09:10:47;9.30;;;4.63;;
44955;SDS011;30686;52.512;-1.188;2023-04-06T09:13:13;11.70;;;4.93;;
44955;SDS011;30686;52.512;-1.188;2023-04-06T09:15:40;11.20;;;4.72;;
44955;SDS011;30686;52.512;-1.188;2023-04-06T09:18:06;13.25;;;5.25;;
44955;SDS011;30686;52.512;-1.188;2023-04-06T09:20:33;10.80;;;5.82;;
44955;SDS011;30686;52.512;-1.188;2023-04-06T09:22:59;12.88;;;5.75;;
44955;SDS011;30686;52.512;-1.188;2023-04-06T09:25:26;9.90;;;4.80;;
44955;SDS011;30686;52.512;-1.188;2023-04-06T09:27:59;15.38;;;5.38;;
44955;SDS011;30686;52.512;-1.188;2023-04-06T09:30:25;11.57;;;4.20;;
44955;SDS011;30686;52.512;-1.188;2023-04-06T09:32:53;15.23;;;5.13;;
44955;SDS011;30686;52.512;-1.188;2023-04-06T09:35:20;7.63;;;4.30;;
44955;SDS011;30686;52.512;-1.188;2023-04-06T09:37:47;8.23;;;4.50;;
44955;SDS011;30686;52.512;-1.188;2023-04-06T09:40:13;11.75;;;5.03;;
44955;SDS011;30686;52.512;-1.188;2023-04-06T09:42:44;7.53;;;4.45;;
44955;SDS011;30686;52.512;-1.188;2023-04-06T09:45:11;10.85;;;6.22;;
44955;SDS011;30686;52.512;-1.188;2023-04-06T09:47:37;8.40;;;4.72;;
44955;SDS011;30686;52.512;-1.188;2023-04-06T09:50:05;9.30;;;4.43;;
44955;SDS011;30686;52.512;-1.188;2023-04-06T09:52:37;8.90;;;4.75;;
44955;SDS011;30686;52.512;-1.188;2023-04-06T09:55:04;11.55;;;4.07;;
44955;SDS011;30686;52.512;-1.188;2023-04-06T09:57:47;11.68;;;4.40;;
44955;SDS011;30686;52.512;-1.188;2023-04-06T10:00:16;9.40;;;3.90;;
44955;SDS011;30686;52.512;-1.188;2023-04-06T10:05:27;9.32;;;3.88;;
44955;SDS011;30686;52.512;-1.188;2023-04-06T10:07:57;4.93;;;2.45;;
44955;SDS011;30686;52.512;-1.188;2023-04-06T10:10:23;4.05;;;2.20;;
44955;SDS011;30686;52.512;-1.188;2023-04-06T10:12:49;6.32;;;2.30;;
44955;SDS011;30686;52.512;-1.188;2023-04-06T10:15:16;6.78;;;3.05;;
44955;SDS011;30686;52.512;-1.188;2023-04-06T10:17:43;6.60;;;2.42;;
44955;SDS011;30686;52.512;-1.188;2023-04-06T10:20:14;11.48;;;2.45;;
44955;SDS011;30686;52.512;-1.188;2023-04-06T10:22:44;8.57;;;2.45;;
44955;SDS011;30686;52.512;-1.188;2023-04-06T10:25:16;5.30;;;2.30;;
44955;SDS011;30686;52.512;-1.188;2023-04-06T10:27:42;8.68;;;3.05;;
44955;SDS011;30686;52.512;-1.188;2023-04-06T10:30:08;13.77;;;4.18;;
44955;SDS011;30686;52.512;-1.188;2023-04-06T10:32:36;6.72;;;3.00;;
44955;SDS011;30686;52.512;-1.188;2023-04-06T10:35:09;7.25;;;2.45;;
44955;SDS011;30686;52.512;-1.188;2023-04-06T10:40:41;5.68;;;2.53;;
44955;SDS011;30686;52.512;-1.188;2023-04-06T10:43:13;8.43;;;2.50;;
44955;SDS011;30686;52.512;-1.188;2023-04-06T10:45:43;12.13;;;2.83;;
44955;SDS011;30686;52.512;-1.188;2023-04-06T10:48:13;5.25;;;2.45;;
44955;SDS011;30686;52.512;-1.188;2023-04-06T10:50:44;8.13;;;2.58;;
44955;SDS011;30686;52.512;-1.188;2023-04-06T10:53:10;8.32;;;2.63;;
44955;SDS011;30686;52.512;-1.188;2023-04-06T10:55:38;6.90;;;2.92;;
44955;SDS011;30686;52.512;-1.188;2023-04-06T10:58:06;11.82;;;2.88;;
44955;SDS011;30686;52.512;-1.188;2023-04-06T11:00:33;11.68;;;3.22;;
44955;SDS011;30686;52.512;-1.188;2023-04-06T11:02:59;7.88;;;2.97;;
44955;SDS011;30686;52.512;-1.188;2023-04-06T11:05:27;8.00;;;3.10;;
44955;SDS011;30686;52.512;-1.188;2023-04-06T11:07:53;9.15;;;3.35;;
44955;SDS011;30686;52.512;-1.188;2023-04-06T11:10:22;8.95;;;3.60;;
44955;SDS011;30686;52.512;-1.188;2023-04-06T11:12:55;4.70;;;3.00;;
44955;SDS011;30686;52.512;-1.188;2023-04-06T11:15:22;11.32;;;3.30;;
44955;SDS011;30686;52.512;-1.188;2023-04-06T11:17:49;5.30;;;2.55;;
44955;SDS011;30686;52.512;-1.188;2023-04-06T11:20:15;9.70;;;2.75;;
44955;SDS011;30686;52.512;-1.188;2023-04-06T11:22:52;7.75;;;2.60;;
44955;SDS011;30686;52.512;-1.188;2023-04-06T11:25:18;4.65;;;2.80;;
44955;SDS011;30686;52.512;-1.188;2023-04-06T11:27:45;7.57;;;2.60;;
44955;SDS011;30686;52.512;-1.188;2023-04-06T11:30:12;12.43;;;4.28;;
44955;SDS011;30686;52.512;-1.188;2023-04-06T11:32:42;9.10;;;3.20;;
44955;SDS011;30686;52.512;-1.188;2023-04-06T11:35:22;8.18;;;2.60;;
44955;SDS011;30686;52.512;-1.188;2023-04-06T11:37:49;7.22;;;2.95;;
44955;SDS011;30686;52.512;-1.188;2023-04-06T11:40:15;5.57;;;1.88;;
44955;SDS011;30686;52.512;-1.188;2023-04-06T11:42:42;4.88;;;1.83;;
44955;SDS011;30686;52.512;-1.188;2023-04-06T11:45:09;4.68;;;1.60;;
44955;SDS011;30686;52.512;-1.188;2023-04-06T11:47:41;8.27;;;2.33;;
44955;SDS011;30686;52.512;-1.188;2023-04-06T11:50:11;4.45;;;1.48;;
44955;SDS011;30686;52.512;-1.188;2023-04-06T11:52:38;5.95;;;1.70;;
44955;SDS011;30686;52.512;-1.188;2023-04-06T11:55:11;10.05;;;1.98;;
44955;SDS011;30686;52.512;-1.188;2023-04-06T11:57:38;7.70;;;2.33;;
44955;SDS011;30686;52.512;-1.188;2023-04-06T12:00:05;4.95;;;1.48;;
44955;SDS011;30686;52.512;-1.188;2023-04-06T12:02:31;6.55;;;1.92;;
44955;SDS011;30686;52.512;-1.188;2023-04-06T12:04:58;5.63;;;1.55;;
44955;SDS011;30686;52.512;-1.188;2023-04-06T12:07:24;4.75;;;1.48;;
44955;SDS011;30686;52.512;-1.188;2023-04-06T12:09:50;6.05;;;1.30;;
44955;SDS011;30686;52.512;-1.188;2023-04-06T12:12:16;2.95;;;1.13;;
44955;SDS011;30686;52.512;-1.188;2023-04-06T12:14:43;3.03;;;1.40;;
44955;SDS011;30686;52.512;-1.188;2023-04-06T12:17:09;5.43;;;1.27;;
44955;SDS011;30686;52.512;-1.188;2023-04-06T12:19:35;9.23;;;1.40;;
44955;SDS011;30686;52.512;-1.188;2023-04-06T12:22:01;5.72;;;1.23;;
44955;SDS011;30686;52.512;-1.188;2023-04-06T12:24:28;7.68;;;1.88;;
44955;SDS011;30686;52.512;-1.188;2023-04-06T12:26:54;8.35;;;1.95;;
44955;SDS011;30686;52.512;-1.188;2023-04-06T12:29:20;2.17;;;1.20;;
44955;SDS011;30686;52.512;-1.188;2023-04-06T12:31:47;2.40;;;1.10;;
44955;SDS011;30686;52.512;-1.188;2023-04-06T12:34:13;5.60;;;1.45;;
44955;SDS011;30686;52.512;-1.188;2023-04-06T12:36:39;5.53;;;1.35;;
44955;SDS011;30686;52.512;-1.188;2023-04-06T12:39:05;2.97;;;1.38;;
44955;SDS011;30686;52.512;-1.188;2023-04-06T12:41:32;4.60;;;1.60;;
44955;SDS011;30686;52.512;-1.188;2023-04-06T12:43:58;5.03;;;1.45;;
44955;SDS011;30686;52.512;-1.188;2023-04-06T12:46:27;5.88;;;1.02;;
44955;SDS011;30686;52.512;-1.188;2023-04-06T12:48:55;6.30;;;1.40;;
44955;SDS011;30686;52.512;-1.188;2023-04-06T12:51:24;9.90;;;1.60;;
44955;SDS011;30686;52.512;-1.188;2023-04-06T12:53:50;3.85;;;1.10;;
44955;SDS011;30686;52.512;-1.188;2023-04-06T12:56:16;4.93;;;1.33;;
44955;SDS011;30686;52.512;-1.188;2023-04-06T12:58:49;6.25;;;1.42;;
44955;SDS011;30686;52.512;-1.188;2023-04-06T13:01:15;1.65;;;0.98;;
44955;SDS011;30686;52.512;-1.188;2023-04-06T13:03:41;5.40;;;1.23;;
44955;SDS011;30686;52.512;-1.188;2023-04-06T13:06:08;1.70;;;0.95;;
44955;SDS011;30686;52.512;-1.188;2023-04-06T13:08:34;4.63;;;1.35;;
44955;SDS011;30686;52.512;-1.188;2023-04-06T13:11:02;8.07;;;1.45;;
44955;SDS011;30686;52.512;-1.188;2023-04-06T13:13:29;2.47;;;1.23;;
44955;SDS011;30686;52.512;-1.188;2023-04-06T13:15:58;9.13;;;1.63;;
44955;SDS011;30686;52.512;-1.188;2023-04-06T13:18:29;3.78;;;1.40;;
44955;SDS011;30686;52.512;-1.188;2023-04-06T13:20:56;4.13;;;1.08;;
44955;SDS011;30686;52.512;-1.188;2023-04-06T13:23:23;5.78;;;1.55;;
44955;SDS011;30686;52.512;-1.188;2023-04-06T13:26:03;2.72;;;1.35;;
44955;SDS011;30686;52.512;-1.188;2023-04-06T13:28:29;6.72;;;1.00;;
44955;SDS011;30686;52.512;-1.188;2023-04-06T13:30:57;4.75;;;1.95;;
44955;SDS011;30686;52.512;-1.188;2023-04-06T13:33:23;5.32;;;1.15;;
44955;SDS011;30686;52.512;-1.188;2023-04-06T13:35:50;5.78;;;1.08;;
44955;SDS011;30686;52.512;-1.188;2023-04-06T13:38:16;3.97;;;1.20;;
44955;SDS011;30686;52.512;-1.188;2023-04-06T13:40:43;1.98;;;1.02;;
44955;SDS011;30686;52.512;-1.188;2023-04-06T13:43:09;2.78;;;1.10;;
44955;SDS011;30686;52.512;-1.188;2023-04-06T13:45:36;4.93;;;1.23;;
44955;SDS011;30686;52.512;-1.188;2023-04-06T13:48:02;3.47;;;1.10;;
44955;SDS011;30686;52.512;-1.188;2023-04-06T13:50:29;4.13;;;1.10;;
44955;SDS011;30686;52.512;-1.188;2023-04-06T13:52:55;2.05;;;1.20;;
44955;SDS011;30686;52.512;-1.188;2023-04-06T13:55:21;2.80;;;1.30;;
44955;SDS011;30686;52.512;-1.188;2023-04-06T13:57:51;3.35;;;1.20;;
44955;SDS011;30686;52.512;-1.188;2023-04-06T14:00:17;2.92;;;1.23;;
44955;SDS011;30686;52.512;-1.188;2023-04-06T14:02:44;3.17;;;1.00;;
44955;SDS011;30686;52.512;-1.188;2023-04-06T14:05:10;1.92;;;0.90;;
44955;SDS011;30686;52.512;-1.188;2023-04-06T14:07:37;7.00;;;1.60;;
44955;SDS011;30686;52.512;-1.188;2023-04-06T14:10:03;3.20;;;1.27;;
44955;SDS011;30686;52.512;-1.188;2023-04-06T14:12:30;4.28;;;1.40;;
44955;SDS011;30686;52.512;-1.188;2023-04-06T14:14:56;8.23;;;1.27;;
44955;SDS011;30686;52.512;-1.188;2023-04-06T14:17:23;4.72;;;1.67;;
44955;SDS011;30686;52.512;-1.188;2023-04-06T14:19:49;4.10;;;1.52;;
44955;SDS011;30686;52.512;-1.188;2023-04-06T14:22:17;5.43;;;1.10;;
44955;SDS011;30686;52.512;-1.188;2023-04-06T14:24:43;7.88;;;1.33;;
44955;SDS011;30686;52.512;-1.188;2023-04-06T14:27:10;3.42;;;1.70;;
44955;SDS011;30686;52.512;-1.188;2023-04-06T14:29:36;5.47;;;1.80;;
44955;SDS011;30686;52.512;-1.188;2023-04-06T14:32:02;5.57;;;1.73;;
44955;SDS011;30686;52.512;-1.188;2023-04-06T14:34:28;3.90;;;1.80;;
44955;SDS011;30686;52.512;-1.188;2023-04-06T14:36:55;7.15;;;1.88;;
44955;SDS011;30686;52.512;-1.188;2023-04-06T14:39:21;5.53;;;1.60;;